createdAt,value
2022-09-18T00:01:39.579Z,99560.97
2022-09-18T00:04:10.762Z,99516.88
2022-09-18T00:06:40.676Z,99534.19
2022-09-18T00:09:14.386Z,99513.84
2022-09-18T00:11:48.473Z,99530.19
2022-09-18T00:14:21.553Z,99531.41
2022-09-18T00:16:50.618Z,99508.88
2022-09-18T00:19:19.401Z,99519.75
2022-09-18T00:21:50.359Z,99521.22
2022-09-18T00:24:19.906Z,99545.97
2022-09-18T00:26:48.021Z,99523.81
2022-09-18T00:29:17.406Z,99527.03
2022-09-18T00:31:45.744Z,99522.25
2022-09-18T00:34:15.182Z,99538.19
2022-09-18T00:36:42.704Z,99528.44
2022-09-18T00:39:11.926Z,99551.53
2022-09-18T00:41:42.093Z,99539.16
2022-09-18T00:44:34.690Z,99556.53
2022-09-18T00:47:25.211Z,99554.78
2022-09-18T00:50:01.937Z,99550.59
2022-09-18T00:52:57.899Z,99561.88
2022-09-18T00:55:38.062Z,99568.44
2022-09-18T00:58:06.937Z,99567.72
2022-09-18T01:00:35.179Z,99560.97
2022-09-18T01:03:02.798Z,99574.84
2022-09-18T01:05:51.811Z,99582.78
2022-09-18T01:08:54.591Z,99579.34
2022-09-18T01:12:00.984Z,99573.22
2022-09-18T01:14:40.919Z,99561.22
2022-09-18T01:17:39.037Z,99570.75
2022-09-18T01:20:54.135Z,99565.88
2022-09-18T01:23:54.088Z,99580.16
2022-09-18T01:26:45.569Z,99575.63
2022-09-18T01:29:36.502Z,99579.69
2022-09-18T01:32:48.791Z,99595.53
2022-09-18T01:35:45.845Z,99585.06
2022-09-18T01:38:29.157Z,99575.59
2022-09-18T01:41:09.801Z,99579.50
2022-09-18T01:43:39.855Z,99586.19
2022-09-18T01:46:14.728Z,99602.28
2022-09-18T01:48:57.740Z,99596.41
2022-09-18T01:51:51.137Z,99593.47
2022-09-18T01:54:27.700Z,99592.81
2022-09-18T01:57:17.554Z,99605.56
2022-09-18T02:00:12.222Z,99618.81
2022-09-18T02:03:09.938Z,99616.31
2022-09-18T02:05:48.501Z,99615.31
2022-09-18T02:08:38.723Z,99628.06
2022-09-18T02:11:15.139Z,99617.34
2022-09-18T02:14:08.018Z,99628.13
2022-09-18T02:17:20.743Z,99630.63
2022-09-18T02:19:59.136Z,99632.03
2022-09-18T02:22:32.530Z,99630.47
2022-09-18T02:25:05.726Z,99627.56
2022-09-18T02:27:36.168Z,99631.41
2022-09-18T02:30:06.576Z,99633.50
2022-09-18T02:32:40.428Z,99640.88
2022-09-18T02:35:11.179Z,99647.44
2022-09-18T02:38:35.866Z,99658.38
2022-09-18T02:41:20.242Z,99669.22
2022-09-18T02:44:06.121Z,99676.00
2022-09-18T02:46:49.285Z,99661.28
2022-09-18T02:49:40.946Z,99676.03
2022-09-18T02:52:42.612Z,99672.06
2022-09-18T02:55:36.965Z,99685.44
2022-09-18T02:58:15.980Z,99670.84
2022-09-18T03:00:49.119Z,99672.53
2022-09-18T03:03:26.326Z,99657.63
2022-09-18T03:05:58.724Z,99665.34
2022-09-18T03:08:26.673Z,99657.53
2022-09-18T03:10:54.824Z,99672.00
2022-09-18T03:13:22.378Z,99657.72
2022-09-18T03:15:50.237Z,99667.22
2022-09-18T03:18:20.381Z,99674.88
2022-09-18T03:20:48.225Z,99682.63
2022-09-18T03:23:16.274Z,99699.09
2022-09-18T03:25:44.803Z,99700.94
2022-09-18T03:28:14.488Z,99686.56
2022-09-18T03:30:45.358Z,99698.19
2022-09-18T03:33:14.066Z,99697.88
2022-09-18T03:35:44.298Z,99695.78
2022-09-18T03:38:11.890Z,99709.03
2022-09-18T03:40:41.321Z,99712.13
2022-09-18T03:43:12.850Z,99738.72
2022-09-18T03:45:41.208Z,99730.09
2022-09-18T03:48:08.662Z,99726.75
2022-09-18T03:50:37.126Z,99749.97
2022-09-18T03:53:08.463Z,99738.00
2022-09-18T03:55:42.525Z,99737.19
2022-09-18T03:58:41.964Z,99735.72
2022-09-18T04:01:15.654Z,99754.84
2022-09-18T04:04:03.282Z,99746.66
2022-09-18T04:06:49.366Z,99736.34
2022-09-18T04:09:52.247Z,99732.78
2022-09-18T04:12:20.759Z,99771.94
2022-09-18T04:14:56.497Z,99743.97
2022-09-18T04:17:25.080Z,99744.13
2022-09-18T04:19:53.697Z,99753.00
2022-09-18T04:22:22.678Z,99745.75
2022-09-18T04:24:50.617Z,99750.25
2022-09-18T04:27:18.634Z,99757.53
2022-09-18T04:29:46.210Z,99784.31
2022-09-18T04:32:16.152Z,99781.44
2022-09-18T04:34:43.755Z,99786.91
2022-09-18T04:37:12.730Z,99798.31
2022-09-18T04:39:40.755Z,99790.03
2022-09-18T04:42:09.796Z,99817.69
2022-09-18T04:44:38.619Z,99800.13
2022-09-18T04:47:07.636Z,99797.09
2022-09-18T04:49:35.230Z,99819.28
2022-09-18T04:52:03.228Z,99819.78
2022-09-18T04:54:31.068Z,99810.88
2022-09-18T04:56:58.713Z,99848.88
2022-09-18T04:59:26.370Z,99815.31
2022-09-18T05:01:57.712Z,99826.81
2022-09-18T05:04:25.302Z,99824.81
2022-09-18T05:07:01.745Z,99828.81
2022-09-18T05:09:29.525Z,99842.03
2022-09-18T05:11:57.323Z,99838.34
2022-09-18T05:14:25.697Z,99836.06
2022-09-18T05:16:57.996Z,99830.28
2022-09-18T05:19:32.498Z,99846.38
2022-09-18T05:22:05.225Z,99838.34
2022-09-18T05:24:36.409Z,99857.34
2022-09-18T05:27:04.168Z,99835.94
2022-09-18T05:29:31.763Z,99842.44
2022-09-18T05:32:08.913Z,99851.56
2022-09-18T05:34:37.837Z,99848.78
2022-09-18T05:37:07.310Z,99848.25
2022-09-18T05:39:35.095Z,99851.41
2022-09-18T05:42:04.267Z,99866.50
2022-09-18T05:44:31.785Z,99861.53
2022-09-18T05:46:59.760Z,99867.75
2022-09-18T05:49:28.593Z,99881.91
2022-09-18T05:51:57.721Z,99870.34
2022-09-18T05:54:29.351Z,99894.03
2022-09-18T05:56:58.730Z,99887.53
2022-09-18T05:59:26.204Z,99868.22
2022-09-18T06:01:56.479Z,99883.28
2022-09-18T06:04:35.334Z,99876.34
2022-09-18T06:07:07.254Z,99877.00
2022-09-18T06:09:35.006Z,99884.41
2022-09-18T06:12:02.859Z,99884.72
2022-09-18T06:14:35.336Z,99889.97
2022-09-18T06:17:03.867Z,99874.00
2022-09-18T06:19:37.280Z,99906.06
2022-09-18T06:22:09.519Z,99886.50
2022-09-18T06:24:38.036Z,99886.84
2022-09-18T06:27:11.416Z,99884.31
2022-09-18T06:29:40.078Z,99890.28
2022-09-18T06:32:13.854Z,99901.28
2022-09-18T06:34:41.797Z,99895.22
2022-09-18T06:37:13.663Z,99897.75
2022-09-18T06:39:44.659Z,99887.88
2022-09-18T06:42:45.275Z,99907.34
2022-09-18T06:45:31.085Z,99890.50
2022-09-18T06:48:03.668Z,99904.34
2022-09-18T06:50:33.503Z,99920.56
2022-09-18T06:53:11.544Z,99927.34
2022-09-18T06:55:49.202Z,99912.72
2022-09-18T06:58:19.500Z,99912.91
2022-09-18T07:00:50.937Z,99931.44
2022-09-18T07:03:25.387Z,99928.38
2022-09-18T07:06:10.358Z,99962.38
2022-09-18T07:08:47.073Z,99943.97
2022-09-18T07:11:49.934Z,99945.53
2022-09-18T07:14:17.631Z,99962.84
2022-09-18T07:16:45.184Z,99948.22
2022-09-18T07:19:13.434Z,99951.47
2022-09-18T07:21:41.327Z,99950.06
2022-09-18T07:24:10.118Z,99952.72
2022-09-18T07:29:53.019Z,99962.22
2022-09-18T07:32:22.265Z,99964.97
2022-09-18T07:34:50.120Z,99968.63
2022-09-18T07:37:25.547Z,99971.53
2022-09-18T07:40:13.372Z,99962.44
2022-09-18T07:43:02.793Z,99988.03
2022-09-18T07:45:31.437Z,99967.41
2022-09-18T07:48:05.471Z,99988.28
2022-09-18T07:50:39.756Z,99993.69
2022-09-18T07:53:11.602Z,99990.97
2022-09-18T07:55:48.064Z,99988.97
2022-09-18T07:58:15.989Z,99996.63
2022-09-18T08:01:03.069Z,99998.50
2022-09-18T08:03:35.034Z,99993.03
2022-09-18T08:06:11.436Z,100000.03
2022-09-18T08:08:50.756Z,100013.25
2022-09-18T08:11:35.982Z,99998.72
2022-09-18T08:14:25.448Z,99999.41
2022-09-18T08:17:13.804Z,100009.38
2022-09-18T08:20:02.146Z,99999.41
2022-09-18T08:22:50.924Z,100013.44
2022-09-18T08:25:23.289Z,100014.34
2022-09-18T08:27:52.087Z,100012.16
2022-09-18T08:30:32.021Z,100012.94
2022-09-18T08:33:07.816Z,99999.84
2022-09-18T08:35:36.068Z,100008.41
2022-09-18T08:38:17.664Z,100009.28
2022-09-18T08:42:01.245Z,100011.66
2022-09-18T08:44:59.779Z,100001.63
2022-09-18T08:47:39.973Z,100017.63
2022-09-18T08:50:25.921Z,100016.56
2022-09-18T08:53:23.637Z,100012.78
2022-09-18T08:56:23.886Z,100015.06
2022-09-18T08:59:40.056Z,100007.78
2022-09-18T09:02:27.629Z,100008.59
2022-09-18T09:05:06.360Z,100009.78
2022-09-18T09:07:54.139Z,100018.78
2022-09-18T09:10:35.102Z,100013.13
2022-09-18T09:13:38.093Z,100033.19
2022-09-18T09:16:22.873Z,100019.66
2022-09-18T09:19:22.330Z,100010.84
2022-09-18T09:22:03.911Z,100009.41
2022-09-18T09:24:58.943Z,100019.88
2022-09-18T09:28:22.874Z,100011.09
2022-09-18T09:31:18.868Z,100003.44
2022-09-18T09:34:27.517Z,100016.75
2022-09-18T09:37:04.015Z,100032.19
2022-09-18T09:39:40.911Z,100012.88
2022-09-18T09:42:23.640Z,100013.72
2022-09-18T09:45:10.338Z,100018.06
2022-09-18T09:48:19.010Z,100002.63
2022-09-18T09:50:49.556Z,100015.31
2022-09-18T09:53:17.280Z,100023.81
2022-09-18T09:56:23.123Z,100026.19
2022-09-18T09:59:38.888Z,100026.16
2022-09-18T10:02:54.307Z,100027.81
2022-09-18T10:05:36.992Z,100021.63
2022-09-18T10:08:19.765Z,100023.97
2022-09-18T10:11:00.797Z,100034.00
2022-09-18T10:13:55.807Z,100027.03
2022-09-18T10:16:29.514Z,100027.09
2022-09-18T10:19:00.868Z,100010.91
2022-09-18T10:21:36.210Z,100033.44
2022-09-18T10:24:27.451Z,100035.75
2022-09-18T10:27:09.609Z,100026.81
2022-09-18T10:29:37.307Z,100024.09
2022-09-18T10:32:11.657Z,100016.00
2022-09-18T10:34:52.467Z,100025.75
2022-09-18T10:37:29.153Z,100018.13
2022-09-18T10:40:05.719Z,100041.31
2022-09-18T10:42:37.362Z,100019.72
2022-09-18T10:45:30.601Z,100015.44
2022-09-18T10:48:23.764Z,100021.25
2022-09-18T10:51:00.855Z,100019.75
2022-09-18T10:53:42.413Z,100033.31
2022-09-18T10:56:21.281Z,100042.25
2022-09-18T10:58:52.556Z,100029.16
2022-09-18T11:01:21.427Z,100025.28
2022-09-18T11:04:04.639Z,100008.28
2022-09-18T11:06:38.549Z,100015.28
2022-09-18T11:09:37.216Z,100023.78
2022-09-18T11:12:22.395Z,100023.41
2022-09-18T11:15:07.973Z,100003.63
2022-09-18T11:17:51.415Z,100016.78
2022-09-18T11:20:43.144Z,100006.69
2022-09-18T11:23:36.764Z,100001.63
2022-09-18T11:26:29.876Z,100011.69
2022-09-18T11:29:02.478Z,100005.03
2022-09-18T11:31:46.772Z,100000.75
2022-09-18T11:34:30.330Z,99994.13
2022-09-18T11:37:11.798Z,100009.22
2022-09-18T11:39:45.929Z,99981.66
2022-09-18T11:42:17.590Z,100001.09
2022-09-18T11:44:48.143Z,100001.16
2022-09-18T11:47:31.874Z,99992.28
2022-09-18T11:50:25.133Z,99998.16
2022-09-18T11:53:29.963Z,99997.38
2022-09-18T11:56:15.861Z,99995.78
2022-09-18T11:59:30.790Z,100001.25
2022-09-18T12:02:14.683Z,99996.59
2022-09-18T12:04:59.040Z,100006.66
2022-09-18T12:08:17.709Z,99998.94
2022-09-18T12:11:04.243Z,99978.44
2022-09-18T12:14:17.031Z,99986.16
2022-09-18T12:17:20.176Z,99992.03
2022-09-18T12:19:56.871Z,99982.00
2022-09-18T12:22:55.103Z,99988.19
2022-09-18T12:26:20.275Z,99992.44
2022-09-18T12:29:40.742Z,99985.09
2022-09-18T12:32:29.692Z,99987.34
2022-09-18T12:35:13.100Z,99985.25
2022-09-18T12:38:06.571Z,99980.97
2022-09-18T12:41:12.782Z,99974.75
2022-09-18T12:44:05.057Z,99979.81
2022-09-18T12:47:00.457Z,99979.41
2022-09-18T12:50:00.617Z,99980.59
2022-09-18T12:53:08.960Z,99984.09
2022-09-18T12:55:59.114Z,99991.88
2022-09-18T12:59:24.565Z,99971.72
2022-09-18T13:02:06.574Z,99980.25
2022-09-18T13:04:43.551Z,99974.84
2022-09-18T13:07:38.144Z,99974.81
2022-09-18T13:10:31.063Z,99979.03
2022-09-18T13:13:11.354Z,99971.63
2022-09-18T13:15:47.646Z,99972.41
2022-09-18T13:18:45.498Z,99973.38
2022-09-18T13:21:44.040Z,99958.31
2022-09-18T13:24:33.887Z,99969.38
2022-09-18T13:27:16.486Z,99977.63
2022-09-18T13:29:51.381Z,99975.03
2022-09-18T13:32:24.518Z,99979.00
2022-09-18T13:35:07.619Z,99976.47
2022-09-18T13:37:35.171Z,99976.22
2022-09-18T13:40:26.329Z,99976.69
2022-09-18T13:42:54.239Z,99986.75
2022-09-18T13:45:26.476Z,99972.88
2022-09-18T13:48:08.320Z,99974.78
2022-09-18T13:50:37.964Z,99979.97
2022-09-18T13:53:06.454Z,99979.84
2022-09-18T13:55:50.185Z,99976.09
2022-09-18T13:58:36.612Z,99974.00
2022-09-18T14:01:10.376Z,99972.03
2022-09-18T14:03:41.091Z,99974.06
2022-09-18T14:06:36.737Z,99982.03
2022-09-18T14:09:44.769Z,99980.31
2022-09-18T14:12:15.312Z,99996.84
2022-09-18T14:14:56.101Z,100003.88
2022-09-18T14:17:28.475Z,99989.75
2022-09-18T14:20:20.252Z,99988.25
2022-09-18T14:22:48.724Z,99988.16
2022-09-18T14:25:45.599Z,99993.13
2022-09-18T14:28:14.655Z,99987.53
2022-09-18T14:30:42.593Z,99989.13
2022-09-18T14:33:20.923Z,99976.47
2022-09-18T14:35:54.384Z,99992.91
2022-09-18T14:38:38.035Z,99992.78
2022-09-18T14:41:23.843Z,99986.94
2022-09-18T14:44:01.379Z,99999.38
2022-09-18T14:46:32.057Z,100029.47
2022-09-18T14:49:34.153Z,99994.38
2022-09-18T14:52:04.860Z,100004.66
2022-09-18T14:54:39.301Z,100002.28
2022-09-18T14:57:14.159Z,100005.97
2022-09-18T14:59:41.874Z,100008.44
2022-09-18T15:02:31.595Z,100011.00
2022-09-18T15:05:03.669Z,99996.78
2022-09-18T15:07:31.654Z,99998.91
2022-09-18T15:10:01.434Z,100013.75
2022-09-18T15:12:31.636Z,100011.41
2022-09-18T15:14:59.545Z,100003.94
2022-09-18T15:18:42.864Z,100002.56
2022-09-18T15:21:35.155Z,100016.84
2022-09-18T15:24:03.985Z,100021.81
2022-09-18T15:26:40.985Z,100021.38
2022-09-18T15:29:30.989Z,100024.06
2022-09-18T15:32:02.771Z,100027.97
2022-09-18T15:34:43.522Z,100016.28
2022-09-18T15:37:20.704Z,100017.38
2022-09-18T15:39:59.219Z,100017.44
2022-09-18T15:42:40.654Z,100023.09
2022-09-18T15:45:08.203Z,100025.97
2022-09-18T15:47:42.811Z,100020.94
2022-09-18T15:50:13.526Z,100016.31
2022-09-18T15:53:37.309Z,100030.25
2022-09-18T15:56:19.034Z,100030.53
2022-09-18T15:58:55.141Z,100041.59
2022-09-18T16:01:35.413Z,100040.75
2022-09-18T16:04:17.983Z,100050.66
2022-09-18T16:07:01.476Z,100050.31
2022-09-18T16:09:41.343Z,100043.66
2022-09-18T16:12:42.416Z,100046.81
2022-09-18T16:15:25.470Z,100042.28
2022-09-18T16:18:21.686Z,100045.22
2022-09-18T16:20:53.796Z,100040.34
2022-09-18T16:23:59.202Z,100035.72
2022-09-18T16:26:36.496Z,100043.22
2022-09-18T16:29:20.989Z,100038.31
2022-09-18T16:31:49.223Z,100037.22
2022-09-18T16:34:28.801Z,100048.09
2022-09-18T16:36:58.260Z,100044.91
2022-09-18T16:39:27.230Z,100037.72
2022-09-18T16:41:54.753Z,100031.66
2022-09-18T16:44:22.817Z,100029.81
2022-09-18T16:46:59.041Z,100029.88
2022-09-18T16:49:31.553Z,100038.47
2022-09-18T16:51:59.572Z,100040.81
2022-09-18T16:54:27.549Z,100039.28
2022-09-18T16:57:12.795Z,100052.44
2022-09-18T16:59:43.520Z,100040.81
2022-09-18T17:02:17.104Z,100050.44
2022-09-18T17:04:45.027Z,100053.13
2022-09-18T17:07:12.533Z,100059.69
2022-09-18T17:09:40.417Z,100058.88
2022-09-18T17:12:08.418Z,100057.31
2022-09-18T17:14:36.019Z,100056.91
2022-09-18T17:17:04.549Z,100060.34
2022-09-18T17:19:32.157Z,100057.63
2022-09-18T17:21:59.781Z,100053.69
2022-09-18T17:24:28.216Z,100056.75
2022-09-18T17:26:55.827Z,100045.13
2022-09-18T17:29:23.385Z,100040.84
2022-09-18T17:31:52.467Z,100046.22
2022-09-18T17:34:22.035Z,100050.06
2022-09-18T17:36:50.062Z,100037.28
2022-09-18T17:39:18.159Z,100040.34
2022-09-18T17:41:45.929Z,100036.84
2022-09-18T17:44:13.609Z,100041.06
2022-09-18T17:46:41.538Z,100047.22
2022-09-18T17:49:09.172Z,100053.03
2022-09-18T17:51:37.133Z,100057.63
2022-09-18T17:54:05.877Z,100063.38
2022-09-18T17:56:34.180Z,100059.06
2022-09-18T17:59:06.428Z,100059.00
2022-09-18T18:01:43.233Z,100062.41
2022-09-18T18:04:11.112Z,100060.38
2022-09-18T18:06:39.448Z,100068.81
2022-09-18T18:09:10.059Z,100071.50
2022-09-18T18:11:38.495Z,100067.56
2022-09-18T18:14:06.450Z,100069.81
2022-09-18T18:16:34.916Z,100073.25
2022-09-18T18:19:06.850Z,100077.50
2022-09-18T18:21:35.350Z,100076.66
2022-09-18T18:24:06.869Z,100075.84
2022-09-18T18:26:38.843Z,100075.00
2022-09-18T18:29:10.736Z,100078.03
2022-09-18T18:31:42.096Z,100073.41
2022-09-18T18:34:13.633Z,100079.19
2022-09-18T18:36:42.851Z,100082.56
2022-09-18T18:39:13.045Z,100091.00
2022-09-18T18:41:42.492Z,100082.50
2022-09-18T18:44:13.237Z,100092.50
2022-09-18T18:46:41.476Z,100084.78
2022-09-18T18:49:15.037Z,100087.56
2022-09-18T18:51:48.762Z,100089.50
2022-09-18T18:54:22.255Z,100089.53
2022-09-18T18:56:50.665Z,100082.63
2022-09-18T18:59:22.225Z,100083.03
2022-09-18T19:01:50.315Z,100086.94
2022-09-18T19:04:19.298Z,100080.00
2022-09-18T19:06:49.129Z,100083.13
2022-09-18T19:09:24.421Z,100083.13
2022-09-18T19:11:53.096Z,100085.81
2022-09-18T19:14:25.215Z,100087.38
2022-09-18T19:16:54.506Z,100081.63
2022-09-18T19:19:24.937Z,100073.50
2022-09-18T19:21:53.582Z,100080.44
2022-09-18T19:24:22.306Z,100077.38
2022-09-18T19:26:50.326Z,100080.44
2022-09-18T19:29:21.691Z,100068.13
2022-09-18T19:31:50.510Z,100071.19
2022-09-18T19:34:20.946Z,100065.00
2022-09-18T19:36:50.819Z,100063.81
2022-09-18T19:39:21.295Z,100063.44
2022-09-18T19:42:12.331Z,100059.59
2022-09-18T19:44:56.168Z,100050.66
2022-09-18T19:47:26.743Z,100050.28
2022-09-18T19:50:02.212Z,100043.28
2022-09-18T19:52:30.153Z,100048.69
2022-09-18T19:54:59.328Z,100037.94
2022-09-18T19:57:28.642Z,100037.97
2022-09-18T19:59:57.454Z,100037.97
2022-09-18T20:02:25.654Z,100043.38
2022-09-18T20:04:54.094Z,100039.91
2022-09-18T20:07:21.781Z,100044.19
2022-09-18T20:09:49.860Z,100044.59
2022-09-18T20:12:17.614Z,100043.09
2022-09-18T20:14:45.295Z,100041.53
2022-09-18T20:17:13.511Z,100036.56
2022-09-18T20:19:41.254Z,100043.16
2022-09-18T20:22:09.041Z,100042.81
2022-09-18T20:24:37.651Z,100040.09
2022-09-18T20:27:05.643Z,100042.78
2022-09-18T20:29:34.047Z,100042.78
2022-09-18T20:32:02.863Z,100046.53
2022-09-18T20:34:30.526Z,100037.66
2022-09-18T20:37:02.855Z,100044.91
2022-09-18T20:39:30.766Z,100044.91
2022-09-18T20:42:00.581Z,100041.03
2022-09-18T20:44:29.415Z,100038.72
2022-09-18T20:46:58.082Z,100042.91
2022-09-18T20:49:26.028Z,100036.75
2022-09-18T20:51:54.532Z,100042.13
2022-09-18T20:54:22.979Z,100034.78
2022-09-18T20:56:50.676Z,100037.09
2022-09-18T20:59:19.401Z,100024.69
2022-09-18T21:01:50.067Z,100025.81
2022-09-18T21:04:20.741Z,100033.84
2022-09-18T21:06:56.328Z,100026.88
2022-09-18T21:09:27.615Z,100028.38
2022-09-18T21:11:56.993Z,100036.84
2022-09-18T21:14:25.588Z,100027.63
2022-09-18T21:16:54.281Z,100021.34
2022-09-18T21:19:24.442Z,100024.84
2022-09-18T21:21:52.226Z,100014.41
2022-09-18T21:24:22.001Z,100022.47
2022-09-18T21:26:50.572Z,100016.69
2022-09-18T21:29:21.051Z,100012.81
2022-09-18T21:31:51.975Z,100008.97
2022-09-18T21:34:27.080Z,100012.81
2022-09-18T21:37:00.386Z,100004.31
2022-09-18T21:39:30.014Z,100002.38
2022-09-18T21:42:01.659Z,99995.09
2022-09-18T21:44:31.846Z,100002.78
2022-09-18T21:47:05.737Z,99997.47
2022-09-18T21:49:34.313Z,99991.69
2022-09-18T21:52:08.101Z,99989.44
2022-09-18T21:54:36.176Z,99995.63
2022-09-18T21:57:03.924Z,99993.38
2022-09-18T21:59:32.233Z,99988.81
2022-09-18T22:02:00.709Z,99992.28
2022-09-18T22:04:32.271Z,99988.41
2022-09-18T22:07:01.676Z,99991.50
2022-09-18T22:09:38.855Z,99983.03
2022-09-18T22:12:07.798Z,99990.00
2022-09-18T22:14:38.323Z,99985.47
2022-09-18T22:17:09.149Z,99990.13
2022-09-18T22:19:41.147Z,99987.44
2022-09-18T22:22:10.512Z,99976.25
2022-09-18T22:24:38.834Z,99968.59
2022-09-18T22:27:08.564Z,99968.59
2022-09-18T22:29:39.143Z,99970.94
2022-09-18T22:32:10.163Z,99973.66
2022-09-18T22:34:37.878Z,99976.75
2022-09-18T22:37:05.440Z,99981.84
2022-09-18T22:39:33.514Z,99974.13
2022-09-18T22:42:01.911Z,99967.19
2022-09-18T22:44:31.150Z,99965.25
2022-09-18T22:46:59.108Z,99967.19
2022-09-18T22:49:26.673Z,99964.91
2022-09-18T22:51:54.804Z,99956.78
2022-09-18T22:54:26.927Z,99961.03
2022-09-18T22:56:55.874Z,99964.16
2022-09-18T22:59:26.218Z,99963.38
2022-09-18T23:02:04.208Z,99962.59
2022-09-18T23:04:33.856Z,99961.81
2022-09-18T23:07:02.551Z,99954.06
2022-09-18T23:09:31.073Z,99950.50
2022-09-18T23:11:59.551Z,99946.72
2022-09-18T23:14:29.948Z,99945.59
2022-09-18T23:16:59.441Z,99940.19
2022-09-18T23:19:33.889Z,99944.06
2022-09-18T23:22:01.509Z,99948.34
2022-09-18T23:24:29.645Z,99944.53
2022-09-18T23:26:58.788Z,99941.09
2022-09-18T23:29:28.509Z,99944.56
2022-09-18T23:31:59.744Z,99930.69
2022-09-18T23:34:33.776Z,99928.38
2022-09-18T23:37:01.792Z,99934.16
2022-09-18T23:39:34.999Z,99930.31
2022-09-18T23:42:05.762Z,99922.59
2022-09-18T23:44:33.547Z,99929.13
2022-09-18T23:47:01.357Z,99922.19
2022-09-18T23:49:30.310Z,99923.72
2022-09-18T23:51:59.475Z,99922.19
2022-09-18T23:54:32.414Z,99921.78
2022-09-18T23:57:00.534Z,99916.38
2022-09-18T23:59:28.604Z,99920.25
